createdAt,value
2023-02-16T00:01:28.219Z,98699.06
2023-02-16T00:03:57.507Z,98695.94
2023-02-16T00:06:26.467Z,98697.38
2023-02-16T00:08:58.119Z,98496.34
2023-02-16T00:11:47.563Z,98697.72
2023-02-16T00:14:16.478Z,98573.47
2023-02-16T00:16:44.884Z,98693.50
2023-02-16T00:19:21.568Z,98705.44
2023-02-16T00:21:51.037Z,98691.00
2023-02-16T00:24:20.958Z,98691.56
2023-02-16T00:26:50.066Z,98689.84
2023-02-16T00:29:21.956Z,98670.75
2023-02-16T00:31:50.575Z,98660.50
2023-02-16T00:34:31.320Z,98706.13
2023-02-16T00:37:01.275Z,98696.97
2023-02-16T00:39:31.551Z,98679.38
2023-02-16T00:42:03.010Z,98699.44
2023-02-16T00:44:34.569Z,98662.66
2023-02-16T00:47:18.154Z,98686.72
2023-02-16T00:49:46.375Z,98693.69
2023-02-16T00:52:31.085Z,98638.75
2023-02-16T00:55:02.298Z,98659.88
2023-02-16T00:57:35.691Z,98682.34
2023-02-16T01:00:09.055Z,98563.69
2023-02-16T01:02:37.684Z,98686.16
2023-02-16T01:05:07.182Z,98533.13
2023-02-16T01:07:53.010Z,98686.78
2023-02-16T01:10:40.225Z,98524.19
2023-02-16T01:13:08.443Z,98692.00
2023-02-16T01:15:37.711Z,98671.91
2023-02-16T01:18:06.129Z,98665.78
2023-02-16T01:20:36.610Z,98688.38
2023-02-16T01:23:05.018Z,98687.72
2023-02-16T01:25:34.643Z,98689.13
2023-02-16T01:28:02.807Z,98683.84
2023-02-16T01:30:31.459Z,98685.22
2023-02-16T01:32:59.558Z,98675.66
2023-02-16T01:35:32.353Z,98645.28
2023-02-16T01:38:00.804Z,98688.34
2023-02-16T01:40:38.418Z,98682.13
2023-02-16T01:43:18.799Z,98557.31
2023-02-16T01:45:49.780Z,98682.63
2023-02-16T01:48:23.821Z,98678.91
2023-02-16T01:51:00.654Z,98678.13
2023-02-16T01:53:34.941Z,98681.69
2023-02-16T01:56:06.183Z,98679.13
2023-02-16T01:58:41.341Z,98466.00
2023-02-16T02:01:38.722Z,98640.16
2023-02-16T02:04:32.885Z,98677.56
2023-02-16T02:07:01.015Z,98664.00
2023-02-16T02:09:36.569Z,98658.78
2023-02-16T02:12:12.030Z,98630.84
2023-02-16T02:14:41.898Z,98595.88
2023-02-16T02:17:14.294Z,98662.25
2023-02-16T02:19:52.224Z,98660.41
2023-02-16T02:23:32.469Z,98656.16
2023-02-16T02:26:37.886Z,98655.16
2023-02-16T02:29:28.904Z,98616.78
2023-02-16T02:32:06.271Z,98651.75
2023-02-16T02:34:48.286Z,98637.84
2023-02-16T02:37:27.515Z,98639.59
2023-02-16T02:40:06.686Z,98641.09
2023-02-16T02:42:42.482Z,98618.47
2023-02-16T02:45:18.550Z,98643.78
2023-02-16T02:47:48.269Z,98532.88
2023-02-16T02:50:39.517Z,98640.38
2023-02-16T02:53:13.824Z,98639.38
2023-02-16T02:56:18.212Z,98634.06
2023-02-16T02:59:06.244Z,98642.78
2023-02-16T03:01:39.634Z,98640.16
2023-02-16T03:04:11.675Z,98615.78
2023-02-16T03:06:44.896Z,98637.47
2023-02-16T03:09:15.352Z,98641.75
2023-02-16T03:12:02.605Z,98658.91
2023-02-16T03:14:34.876Z,98638.34
2023-02-16T03:17:26.865Z,98636.34
2023-02-16T03:20:12.840Z,98635.69
2023-02-16T03:22:59.479Z,98559.91
2023-02-16T03:25:50.291Z,98636.94
2023-02-16T03:28:39.810Z,98630.34
2023-02-16T03:31:11.791Z,98631.13
2023-02-16T03:33:42.406Z,98608.63
2023-02-16T03:36:11.846Z,98595.41
2023-02-16T03:38:40.183Z,98621.38
2023-02-16T03:41:08.466Z,98624.72
2023-02-16T03:43:36.679Z,98629.81
2023-02-16T03:46:04.894Z,98629.00
2023-02-16T03:48:33.074Z,98627.78
2023-02-16T03:51:02.952Z,98634.84
2023-02-16T03:53:31.432Z,98633.84
2023-02-16T03:55:59.609Z,98625.25
2023-02-16T03:58:27.933Z,98628.78
2023-02-16T04:00:56.915Z,98626.28
2023-02-16T04:03:25.033Z,98608.03
2023-02-16T04:05:53.219Z,98633.25
2023-02-16T04:08:22.770Z,98623.63
2023-02-16T04:10:50.963Z,98622.69
2023-02-16T04:13:18.405Z,98617.44
2023-02-16T04:15:46.790Z,98616.75
2023-02-16T04:18:15.038Z,98609.94
2023-02-16T04:20:43.330Z,98616.75
2023-02-16T04:23:11.547Z,98567.72
2023-02-16T04:25:41.110Z,98610.03
2023-02-16T04:28:09.279Z,98541.63
2023-02-16T04:30:37.569Z,98601.91
2023-02-16T04:33:05.847Z,98606.91
2023-02-16T04:35:34.017Z,98599.25
2023-02-16T04:38:02.254Z,98575.94
2023-02-16T04:40:30.483Z,98572.06
2023-02-16T04:43:00.127Z,98592.72
2023-02-16T04:45:28.371Z,98600.06
2023-02-16T04:47:59.799Z,98599.63
2023-02-16T04:50:27.957Z,98549.25
2023-02-16T04:52:56.095Z,98536.28
2023-02-16T04:55:24.390Z,98591.78
2023-02-16T04:57:52.565Z,98590.84
2023-02-16T05:00:22.678Z,98593.28
2023-02-16T05:02:50.838Z,98594.16
2023-02-16T05:05:19.074Z,98595.16
2023-02-16T05:07:47.288Z,98591.47
2023-02-16T05:10:15.440Z,98570.72
2023-02-16T05:13:00.748Z,98564.53
2023-02-16T05:15:30.509Z,98566.19
2023-02-16T05:17:58.738Z,98567.75
2023-02-16T05:20:46.885Z,98581.84
2023-02-16T05:23:15.315Z,98576.91
2023-02-16T05:25:43.646Z,98586.34
2023-02-16T05:28:11.981Z,98581.44
2023-02-16T05:30:41.777Z,98584.91
2023-02-16T05:33:10.031Z,98581.97
2023-02-16T05:35:38.261Z,98408.91
2023-02-16T05:38:06.403Z,98577.88
2023-02-16T05:40:35.773Z,98585.66
2023-02-16T05:43:03.934Z,98583.88
2023-02-16T05:45:32.133Z,98589.84
2023-02-16T05:48:01.830Z,98581.81
2023-02-16T05:50:29.955Z,98587.69
2023-02-16T05:52:58.084Z,98588.47
2023-02-16T05:55:26.668Z,98595.41
2023-02-16T05:57:54.836Z,98589.56
2023-02-16T06:00:23.227Z,98601.72
2023-02-16T06:02:51.387Z,98596.94
2023-02-16T06:05:21.167Z,98601.97
2023-02-16T06:07:49.278Z,98601.72
2023-02-16T06:10:17.657Z,98610.97
2023-02-16T06:12:46.205Z,98621.22
2023-02-16T06:15:14.489Z,98615.19
2023-02-16T06:17:44.682Z,98615.34
2023-02-16T06:20:13.462Z,98620.84
2023-02-16T06:22:42.986Z,98535.94
2023-02-16T06:25:11.187Z,98626.59
2023-02-16T06:27:39.356Z,98621.97
2023-02-16T06:30:09.074Z,98624.31
2023-02-16T06:32:37.352Z,98607.38
2023-02-16T06:35:05.803Z,98631.38
2023-02-16T06:37:34.316Z,98636.09
2023-02-16T06:40:03.900Z,98631.47
2023-02-16T06:42:32.193Z,98589.88
2023-02-16T06:45:00.298Z,98632.91
2023-02-16T06:47:28.409Z,98634.03
2023-02-16T06:49:56.500Z,98640.38
2023-02-16T06:52:25.221Z,98630.38
2023-02-16T06:54:53.364Z,98635.44
2023-02-16T06:57:23.009Z,98644.66
2023-02-16T06:59:51.196Z,98630.75
2023-02-16T07:02:19.384Z,98626.50
2023-02-16T07:04:47.510Z,98644.94
2023-02-16T07:07:15.694Z,98634.13
2023-02-16T07:09:44.460Z,98633.38
2023-02-16T07:12:12.591Z,98642.63
2023-02-16T07:14:43.875Z,98620.19
2023-02-16T07:17:12.373Z,98634.88
2023-02-16T07:19:40.556Z,98626.03
2023-02-16T07:22:08.753Z,98624.84
2023-02-16T07:24:36.900Z,98612.53
2023-02-16T07:27:05.703Z,98631.44
2023-02-16T07:29:33.852Z,98633.56
2023-02-16T07:32:03.685Z,98630.97
2023-02-16T07:34:32.075Z,98638.56
2023-02-16T07:37:00.268Z,98635.94
2023-02-16T07:39:29.527Z,98632.78
2023-02-16T07:41:57.669Z,98632.19
2023-02-16T07:44:25.822Z,98631.00
2023-02-16T07:46:54.092Z,98635.03
2023-02-16T07:49:23.810Z,98634.38
2023-02-16T07:51:51.941Z,98636.28
2023-02-16T07:54:20.015Z,98618.03
2023-02-16T07:56:48.199Z,98583.44
2023-02-16T07:59:17.622Z,98628.97
2023-02-16T08:01:45.867Z,98571.69
2023-02-16T08:04:14.061Z,98632.09
2023-02-16T08:06:43.583Z,98628.78
2023-02-16T08:09:11.716Z,98632.69
2023-02-16T08:11:39.796Z,98634.72
2023-02-16T08:14:07.897Z,98638.38
2023-02-16T08:16:36.434Z,98655.78
2023-02-16T08:19:04.970Z,98470.41
2023-02-16T08:21:35.132Z,98662.31
2023-02-16T08:24:07.313Z,98619.25
2023-02-16T08:26:38.100Z,98639.53
2023-02-16T08:29:07.304Z,98644.97
2023-02-16T08:31:38.443Z,98646.03
2023-02-16T08:34:07.425Z,98589.38
2023-02-16T08:36:38.345Z,98640.84
2023-02-16T08:39:09.934Z,98649.56
2023-02-16T08:41:38.795Z,98641.19
2023-02-16T08:44:08.316Z,98513.91
2023-02-16T08:46:40.007Z,98648.31
2023-02-16T08:49:09.093Z,98643.19
2023-02-16T08:51:39.342Z,98604.06
2023-02-16T08:54:09.419Z,98647.78
2023-02-16T08:56:38.030Z,98647.97
2023-02-16T08:59:06.185Z,98639.56
2023-02-16T09:01:34.395Z,98623.16
2023-02-16T09:04:02.549Z,98648.56
2023-02-16T09:06:30.732Z,98641.91
2023-02-16T09:08:58.866Z,98640.34
2023-02-16T09:11:28.397Z,98636.03
2023-02-16T09:13:56.493Z,98631.84
2023-02-16T09:16:28.069Z,98632.06
2023-02-16T09:18:57.451Z,98629.59
2023-02-16T09:21:27.043Z,98647.84
2023-02-16T09:23:58.383Z,98629.75
2023-02-16T09:26:29.378Z,98622.94
2023-02-16T09:28:59.105Z,98625.72
2023-02-16T09:31:29.500Z,98614.53
2023-02-16T09:33:59.350Z,98621.63
2023-02-16T09:36:27.503Z,98621.66
2023-02-16T09:38:56.343Z,98622.66
2023-02-16T09:41:37.570Z,98458.22
2023-02-16T09:44:15.198Z,98621.88
2023-02-16T09:46:43.978Z,98593.22
2023-02-16T09:49:25.147Z,98578.47
2023-02-16T09:52:03.224Z,98622.94
2023-02-16T09:54:40.914Z,98636.06
2023-02-16T09:57:20.973Z,98624.81
2023-02-16T09:59:57.827Z,98608.34
2023-02-16T10:02:37.839Z,98626.59
2023-02-16T10:05:21.483Z,98430.94
2023-02-16T10:08:04.779Z,98625.75
2023-02-16T10:10:40.959Z,98631.84
2023-02-16T10:13:20.982Z,98633.59
2023-02-16T10:15:53.614Z,98626.66
2023-02-16T10:18:27.505Z,98621.44
2023-02-16T10:20:57.714Z,98624.06
2023-02-16T10:23:39.825Z,98618.88
2023-02-16T10:26:21.608Z,98609.31
2023-02-16T10:28:55.067Z,98604.97
2023-02-16T10:31:30.522Z,98604.97
2023-02-16T10:34:23.156Z,98566.72
2023-02-16T10:37:15.625Z,98604.94
2023-02-16T10:39:52.122Z,98607.53
2023-02-16T10:42:30.639Z,98610.16
2023-02-16T10:45:10.108Z,98460.72
2023-02-16T10:47:41.051Z,98601.38
2023-02-16T10:50:22.062Z,98597.91
2023-02-16T10:52:51.689Z,98594.41
2023-02-16T10:55:19.847Z,98554.47
2023-02-16T10:57:54.625Z,98589.22
2023-02-16T11:00:35.174Z,98582.19
2023-02-16T11:03:04.316Z,98542.22
2023-02-16T11:05:36.349Z,98576.06
2023-02-16T11:08:05.444Z,98569.09
2023-02-16T11:10:43.285Z,98570.78
2023-02-16T11:13:25.624Z,98562.88
2023-02-16T11:15:57.615Z,98560.25
2023-02-16T11:18:36.565Z,98561.06
2023-02-16T11:21:06.297Z,98568.06
2023-02-16T11:23:36.886Z,98577.53
2023-02-16T11:26:07.692Z,98566.13
2023-02-16T11:28:38.564Z,98401.28
2023-02-16T11:31:14.809Z,98520.91
2023-02-16T11:33:44.577Z,98570.25
2023-02-16T11:36:25.738Z,98563.97
2023-02-16T11:39:00.025Z,98556.06
2023-02-16T11:41:29.658Z,98483.09
2023-02-16T11:43:59.031Z,98519.34
2023-02-16T11:46:29.239Z,98533.91
2023-02-16T11:48:57.478Z,98508.63
2023-02-16T11:51:35.070Z,98517.22
2023-02-16T11:54:06.007Z,98535.31
2023-02-16T11:56:35.862Z,98536.00
2023-02-16T11:59:08.427Z,98528.84
2023-02-16T12:01:52.866Z,98529.50
2023-02-16T12:04:33.834Z,98434.22
2023-02-16T12:07:15.557Z,98503.16
2023-02-16T12:09:54.896Z,98510.66
2023-02-16T12:12:35.321Z,98505.06
2023-02-16T12:15:13.944Z,98492.41
2023-02-16T12:17:57.681Z,98485.03
2023-02-16T12:20:52.125Z,98484.66
2023-02-16T12:23:40.138Z,98479.09
2023-02-16T12:26:31.714Z,98477.28
2023-02-16T12:29:08.605Z,98474.53
2023-02-16T12:31:53.107Z,98475.25
2023-02-16T12:34:30.600Z,98469.66
2023-02-16T12:37:05.599Z,98460.56
2023-02-16T12:39:47.023Z,98456.50
2023-02-16T12:42:34.271Z,98457.66
2023-02-16T12:45:07.927Z,98350.97
2023-02-16T12:47:41.124Z,98446.66
2023-02-16T12:50:20.093Z,98448.19
2023-02-16T12:52:54.171Z,98415.91
2023-02-16T12:55:28.590Z,98443.38
2023-02-16T12:58:04.293Z,98434.72
2023-02-16T13:00:42.999Z,98303.34
2023-02-16T13:03:31.339Z,98422.78
2023-02-16T13:06:15.877Z,98412.06
2023-02-16T13:08:49.571Z,98413.44
2023-02-16T13:11:23.444Z,98429.91
2023-02-16T13:13:54.763Z,98422.91
2023-02-16T13:16:30.902Z,98417.38
2023-02-16T13:18:59.976Z,98419.75
2023-02-16T13:21:55.969Z,98417.31
2023-02-16T13:24:38.823Z,98391.50
2023-02-16T13:27:19.477Z,98410.81
2023-02-16T13:30:06.058Z,98407.03
2023-02-16T13:33:11.186Z,98399.75
2023-02-16T13:35:58.672Z,98404.13
2023-02-16T13:38:48.162Z,98386.97
2023-02-16T13:41:35.588Z,98397.38
2023-02-16T13:44:08.425Z,98395.44
2023-02-16T13:46:41.056Z,98389.41
2023-02-16T13:49:31.185Z,98395.59
2023-02-16T13:52:00.178Z,98390.81
2023-02-16T13:54:33.133Z,98388.47
2023-02-16T13:57:04.179Z,98382.03
2023-02-16T14:00:05.733Z,98359.13
2023-02-16T14:02:59.507Z,98277.34
2023-02-16T14:05:35.057Z,98374.63
2023-02-16T14:08:23.645Z,98381.47
2023-02-16T14:11:19.184Z,98366.53
2023-02-16T14:13:49.981Z,98365.50
2023-02-16T14:16:34.902Z,98357.13
2023-02-16T14:19:20.517Z,98353.03
2023-02-16T14:21:50.337Z,98351.22
2023-02-16T14:24:32.795Z,98350.63
2023-02-16T14:27:04.176Z,98353.91
2023-02-16T14:29:36.412Z,98359.69
2023-02-16T14:32:18.346Z,98344.13
2023-02-16T14:34:55.398Z,98361.63
2023-02-16T14:37:42.523Z,98361.84
2023-02-16T14:40:19.788Z,98355.47
2023-02-16T14:42:56.938Z,98350.22
2023-02-16T14:46:02.088Z,98358.94
2023-02-16T14:48:52.975Z,98350.78
2023-02-16T14:51:44.140Z,98351.22
2023-02-16T14:54:42.654Z,98350.22
2023-02-16T14:57:17.443Z,98353.91
2023-02-16T14:59:53.944Z,98357.97
2023-02-16T15:02:27.680Z,98353.56
2023-02-16T15:04:56.418Z,98358.34
2023-02-16T15:07:26.765Z,98369.72
2023-02-16T15:09:59.434Z,98373.56
2023-02-16T15:12:32.921Z,98354.97
2023-02-16T15:15:07.869Z,98364.53
2023-02-16T15:17:39.131Z,98369.09
2023-02-16T15:20:12.181Z,98376.38
2023-02-16T15:22:44.473Z,98376.13
2023-02-16T15:25:24.381Z,98369.56
2023-02-16T15:27:59.097Z,98380.34
2023-02-16T15:30:31.146Z,98381.72
2023-02-16T15:33:01.642Z,98375.97
2023-02-16T15:35:34.735Z,98380.72
2023-02-16T15:38:22.203Z,98378.28
2023-02-16T15:40:54.269Z,98381.38
2023-02-16T15:43:32.514Z,98376.38
2023-02-16T15:46:03.921Z,98381.94
2023-02-16T15:48:33.705Z,98345.75
2023-02-16T15:51:08.258Z,98376.25
2023-02-16T15:53:42.685Z,98376.44
2023-02-16T15:56:26.791Z,98372.19
2023-02-16T15:58:56.393Z,98376.72
2023-02-16T16:01:33.353Z,98378.75
2023-02-16T16:04:04.705Z,98385.75
2023-02-16T16:06:39.649Z,98382.56
2023-02-16T16:09:08.766Z,98356.13
2023-02-16T16:11:38.490Z,98386.31
2023-02-16T16:14:08.247Z,98399.59
2023-02-16T16:16:38.772Z,98377.19
2023-02-16T16:19:17.797Z,98396.41
2023-02-16T16:21:51.818Z,98401.78
2023-02-16T16:24:34.191Z,98398.41
2023-02-16T16:27:05.799Z,98392.38
2023-02-16T16:29:36.436Z,98369.84
2023-02-16T16:32:08.305Z,98398.56
2023-02-16T16:34:39.175Z,98392.53
2023-02-16T16:37:08.783Z,98383.91
2023-02-16T16:39:41.103Z,98403.94
2023-02-16T16:42:17.211Z,98406.56
2023-02-16T16:44:54.269Z,98399.66
2023-02-16T16:47:28.046Z,98405.75
2023-02-16T16:49:58.357Z,98416.25
2023-02-16T16:52:48.546Z,98417.16
2023-02-16T16:55:30.438Z,98419.78
2023-02-16T16:58:01.372Z,98416.34
2023-02-16T17:00:34.296Z,98393.78
2023-02-16T17:03:04.844Z,98430.25
2023-02-16T17:05:33.174Z,98430.28
2023-02-16T17:08:01.320Z,98439.00
2023-02-16T17:10:29.600Z,98436.38
2023-02-16T17:12:59.771Z,98423.38
2023-02-16T17:15:41.127Z,98422.50
2023-02-16T17:18:16.051Z,98441.63
2023-02-16T17:20:44.744Z,98444.22
2023-02-16T17:23:13.584Z,98386.06
2023-02-16T17:25:42.678Z,98383.44
2023-02-16T17:28:12.512Z,98442.50
2023-02-16T17:30:41.097Z,98440.75
2023-02-16T17:33:09.788Z,98431.22
2023-02-16T17:35:41.549Z,98389.53
2023-02-16T17:38:10.911Z,98434.66
2023-02-16T17:40:39.471Z,98439.00
2023-02-16T17:43:13.614Z,98448.53
2023-02-16T17:45:42.492Z,98438.97
2023-02-16T17:48:16.176Z,98058.00
2023-02-16T17:50:45.749Z,98442.44
2023-02-16T17:53:15.695Z,98442.44
2023-02-16T17:55:44.172Z,98441.53
2023-02-16T17:58:12.921Z,98447.63
2023-02-16T18:00:41.431Z,98441.53
2023-02-16T18:03:10.058Z,98437.16
2023-02-16T18:05:39.013Z,98442.38
2023-02-16T18:08:08.556Z,98439.75
2023-02-16T18:10:40.209Z,98444.94
2023-02-16T18:13:09.686Z,98424.03
2023-02-16T18:15:37.868Z,98355.31
2023-02-16T18:18:06.282Z,98451.78
2023-02-16T18:20:34.598Z,98458.66
2023-02-16T18:23:02.678Z,98461.28
2023-02-16T18:25:32.364Z,98461.28
2023-02-16T18:28:00.838Z,98455.25
2023-02-16T18:30:29.136Z,98448.28
2023-02-16T18:32:57.348Z,98473.41
2023-02-16T18:35:25.573Z,98463.81
2023-02-16T18:37:53.718Z,98451.53
2023-02-16T18:40:22.149Z,98467.16
2023-02-16T18:42:51.798Z,98473.19
2023-02-16T18:45:20.019Z,98452.28
2023-02-16T18:47:48.138Z,98458.34
2023-02-16T18:50:16.293Z,98478.31
2023-02-16T18:52:45.096Z,98368.72
2023-02-16T18:55:13.952Z,98483.47
2023-02-16T18:57:42.461Z,98485.13
2023-02-16T19:00:15.106Z,98459.94
2023-02-16T19:02:43.823Z,98479.03
2023-02-16T19:05:12.353Z,98477.25
2023-02-16T19:07:40.501Z,98477.25
2023-02-16T19:10:10.604Z,98439.78
2023-02-16T19:12:38.990Z,98471.13
2023-02-16T19:15:07.808Z,98478.00
2023-02-16T19:17:38.732Z,98464.13
2023-02-16T19:20:09.883Z,98451.03
2023-02-16T19:22:38.163Z,98439.63
2023-02-16T19:25:07.055Z,98484.78
2023-02-16T19:27:35.492Z,98485.63
2023-02-16T19:30:04.358Z,98473.44
2023-02-16T19:32:32.545Z,98480.44
2023-02-16T19:35:02.064Z,98476.91
2023-02-16T19:37:30.288Z,98389.06
2023-02-16T19:39:58.402Z,98486.31
2023-02-16T19:42:26.558Z,98484.50
2023-02-16T19:44:54.785Z,98493.94
2023-02-16T19:47:22.961Z,98486.97
2023-02-16T19:49:51.094Z,98486.22
2023-02-16T19:52:20.751Z,98457.50
2023-02-16T19:54:49.606Z,98500.81
2023-02-16T19:57:17.850Z,98501.47
2023-02-16T19:59:46.053Z,98498.78
2023-02-16T20:02:15.724Z,98500.50
2023-02-16T20:04:44.233Z,98465.63
2023-02-16T20:07:12.444Z,98489.19
2023-02-16T20:09:42.170Z,98491.69
2023-02-16T20:12:10.397Z,98498.56
2023-02-16T20:14:38.690Z,98494.16
2023-02-16T20:17:06.845Z,98508.00
2023-02-16T20:19:35.105Z,98496.75
2023-02-16T20:22:03.372Z,98508.84
2023-02-16T20:24:31.612Z,98497.59
2023-02-16T20:27:04.460Z,98472.41
2023-02-16T20:29:33.215Z,98439.16
2023-02-16T20:32:01.616Z,98434.13
2023-02-16T20:34:33.492Z,98469.53
2023-02-16T20:37:01.819Z,98504.25
2023-02-16T20:39:30.103Z,98509.28
2023-02-16T20:41:59.521Z,98468.31
2023-02-16T20:44:29.057Z,98506.75
2023-02-16T20:46:57.436Z,98501.38
2023-02-16T20:49:25.834Z,98477.09
2023-02-16T20:51:54.073Z,98500.66
2023-02-16T20:54:22.378Z,98503.72
2023-02-16T20:56:50.490Z,98508.81
2023-02-16T20:59:18.781Z,98503.59
2023-02-16T21:01:50.253Z,98507.00
2023-02-16T21:04:20.572Z,98506.13
2023-02-16T21:06:49.089Z,98506.13
2023-02-16T21:09:17.739Z,98391.69
2023-02-16T21:11:45.922Z,98479.13
2023-02-16T21:14:14.605Z,98495.75
2023-02-16T21:16:42.921Z,98489.50
2023-02-16T21:19:22.466Z,98516.28
2023-02-16T21:21:51.578Z,98513.66
2023-02-16T21:24:19.781Z,98510.13
2023-02-16T21:26:48.021Z,98496.97
2023-02-16T21:29:16.320Z,98507.72
2023-02-16T21:31:44.851Z,98507.53
2023-02-16T21:34:14.531Z,98463.97
2023-02-16T21:36:42.933Z,98489.31
2023-02-16T21:39:11.095Z,98505.06
2023-02-16T21:41:38.494Z,98503.22
2023-02-16T21:44:09.108Z,98504.84
2023-02-16T21:46:39.466Z,98498.75
2023-02-16T21:49:09.054Z,98495.41
2023-02-16T21:51:40.324Z,98497.91
2023-02-16T21:54:10.921Z,98499.66
2023-02-16T21:56:40.813Z,98471.13
2023-02-16T21:59:11.925Z,98490.34
2023-02-16T22:01:43.506Z,98469.13
2023-02-16T22:04:13.200Z,98495.13
2023-02-16T22:06:45.114Z,98491.75
2023-02-16T22:09:15.702Z,98495.13
2023-02-16T22:11:44.356Z,98454.06
2023-02-16T22:14:12.900Z,98484.69
2023-02-16T22:16:41.277Z,98493.44
2023-02-16T22:19:12.384Z,98490.91
2023-02-16T22:21:43.453Z,98481.22
2023-02-16T22:24:13.825Z,98487.16
2023-02-16T22:26:42.040Z,98492.34
2023-02-16T22:29:10.650Z,98481.97
2023-02-16T22:31:39.191Z,98487.16
2023-02-16T22:34:09.311Z,98383.56
2023-02-16T22:36:38.052Z,98501.06
2023-02-16T22:39:08.254Z,98497.53
2023-02-16T22:41:36.727Z,98499.31
2023-02-16T22:44:05.920Z,98492.63
2023-02-16T22:46:34.227Z,98489.16
2023-02-16T22:49:02.441Z,98470.94
2023-02-16T22:51:31.458Z,98485.66
2023-02-16T22:54:00.663Z,98490.91
2023-02-16T22:56:30.948Z,98484.00
2023-02-16T22:59:00.729Z,98464.00
2023-02-16T23:01:30.387Z,98488.31
2023-02-16T23:04:01.073Z,98479.63
2023-02-16T23:06:31.122Z,98478.75
2023-02-16T23:09:00.721Z,98470.03
2023-02-16T23:11:30.841Z,98469.31
2023-02-16T23:13:59.106Z,98369.91
2023-02-16T23:16:28.752Z,98478.81
2023-02-16T23:18:58.340Z,98436.06
2023-02-16T23:21:28.655Z,98465.66
2023-02-16T23:23:57.830Z,98483.13
2023-02-16T23:26:28.750Z,98477.13
2023-02-16T23:29:01.459Z,98477.75
2023-02-16T23:31:33.376Z,98469.78
2023-02-16T23:34:02.715Z,98478.34
2023-02-16T23:36:31.410Z,98419.22
2023-02-16T23:39:01.068Z,98472.34
2023-02-16T23:41:29.308Z,98478.91
2023-02-16T23:44:00.944Z,98483.50
2023-02-16T23:46:29.736Z,98456.66
2023-02-16T23:48:57.945Z,98384.53
2023-02-16T23:51:26.165Z,98477.63
2023-02-16T23:53:54.749Z,98473.97
2023-02-16T23:56:24.995Z,98473.16
2023-02-16T23:58:54.353Z,98478.38
